createdAt,value
2023-05-26T00:02:53.646Z,100.00
2023-05-26T00:06:11.234Z,100.00
2023-05-26T00:09:25.244Z,100.00
2023-05-26T00:12:38.417Z,100.00
2023-05-26T00:15:50.864Z,100.00
2023-05-26T00:19:07.088Z,100.00
2023-05-26T00:22:20.147Z,100.00
2023-05-26T00:25:32.793Z,100.00
2023-05-26T00:28:45.147Z,100.00
2023-05-26T00:31:57.974Z,100.00
2023-05-26T00:35:12.134Z,100.00
2023-05-26T00:38:24.878Z,100.00
2023-05-26T00:41:37.584Z,100.00
2023-05-26T00:44:51.772Z,100.00
2023-05-26T00:48:05.891Z,100.00
2023-05-26T00:51:18.652Z,100.00
2023-05-26T00:54:31.191Z,100.00
2023-05-26T00:57:44.262Z,100.00
2023-05-26T01:00:58.280Z,100.00
2023-05-26T01:04:11.056Z,100.00
2023-05-26T01:07:23.884Z,100.00
2023-05-26T01:10:36.795Z,100.00
2023-05-26T01:13:54.069Z,100.00
2023-05-26T01:17:15.958Z,100.00
2023-05-26T01:20:47.237Z,100.00
2023-05-26T01:24:12.383Z,100.00
2023-05-26T01:27:57.564Z,100.00
2023-05-26T01:31:11.189Z,100.00
2023-05-26T01:34:23.591Z,100.00
2023-05-26T01:37:36.253Z,100.00
2023-05-26T01:40:51.573Z,100.00
2023-05-26T01:44:09.885Z,100.00
2023-05-26T01:47:23.359Z,100.00
2023-05-26T01:50:55.731Z,100.00
2023-05-26T01:54:10.295Z,100.00
2023-05-26T01:57:22.947Z,100.00
2023-05-26T02:00:36.568Z,100.00
2023-05-26T02:03:49.317Z,100.00
2023-05-26T02:07:03.950Z,100.00
2023-05-26T02:10:16.957Z,100.00
2023-05-26T02:13:29.370Z,100.00
2023-05-26T02:16:42.765Z,100.00
2023-05-26T02:19:55.354Z,100.00
2023-05-26T02:23:10.050Z,100.00
2023-05-26T02:26:23.046Z,100.00
2023-05-26T02:29:35.730Z,100.00
2023-05-26T02:32:48.164Z,100.00
2023-05-26T02:36:01.144Z,100.00
2023-05-26T02:39:13.627Z,100.00
2023-05-26T02:42:26.314Z,100.00
2023-05-26T02:45:38.949Z,100.00
2023-05-26T02:48:51.693Z,100.00
2023-05-26T02:52:04.229Z,100.00
2023-05-26T02:55:17.035Z,100.00
2023-05-26T02:58:29.506Z,100.00
2023-05-26T03:01:42.314Z,100.00
2023-05-26T03:04:54.808Z,100.00
2023-05-26T03:08:07.461Z,100.00
2023-05-26T03:11:19.941Z,100.00
2023-05-26T03:14:32.650Z,100.00
2023-05-26T03:17:45.136Z,100.00
2023-05-26T03:20:58.129Z,100.00
2023-05-26T03:24:11.761Z,100.00
2023-05-26T03:27:24.780Z,100.00
2023-05-26T03:30:38.870Z,100.00
2023-05-26T03:33:51.560Z,100.00
2023-05-26T03:37:04.374Z,100.00
2023-05-26T03:40:17.307Z,100.00
2023-05-26T03:43:29.789Z,100.00
2023-05-26T03:46:44.199Z,100.00
2023-05-26T03:49:57.199Z,100.00
2023-05-26T03:53:11.531Z,100.00
2023-05-26T03:56:26.579Z,100.00
2023-05-26T03:59:39.547Z,100.00
2023-05-26T04:02:51.970Z,100.00
2023-05-26T04:06:05.117Z,100.00
2023-05-26T04:09:18.457Z,100.00
2023-05-26T04:12:31.121Z,100.00
2023-05-26T04:15:46.110Z,100.00
2023-05-26T04:18:59.866Z,100.00
2023-05-26T04:22:13.643Z,100.00
2023-05-26T04:25:26.311Z,100.00
2023-05-26T04:28:39.346Z,100.00
2023-05-26T04:31:54.331Z,100.00
2023-05-26T04:35:07.381Z,100.00
2023-05-26T04:38:21.660Z,100.00
2023-05-26T04:41:34.409Z,100.00
2023-05-26T04:44:47.206Z,100.00
2023-05-26T04:48:00.782Z,100.00
2023-05-26T04:51:14.966Z,100.00
2023-05-26T04:54:27.397Z,100.00
2023-05-26T04:57:40.386Z,100.00
2023-05-26T05:00:52.779Z,100.00
2023-05-26T05:04:08.368Z,100.00
2023-05-26T05:07:21.141Z,100.00
2023-05-26T05:10:33.900Z,100.00
2023-05-26T05:13:46.608Z,100.00
2023-05-26T05:16:59.623Z,100.00
2023-05-26T05:20:16.517Z,100.00
2023-05-26T05:23:39.348Z,100.00
2023-05-26T05:26:52.173Z,100.00
2023-05-26T05:30:06.472Z,100.00
2023-05-26T05:33:19.053Z,100.00
2023-05-26T05:36:33.056Z,99.45
2023-05-26T05:39:46.011Z,100.00
2023-05-26T05:42:59.145Z,98.15
2023-05-26T05:46:11.712Z,97.31
2023-05-26T05:49:24.497Z,96.47
2023-05-26T05:52:36.916Z,89.62
2023-05-26T05:55:50.240Z,87.26
2023-05-26T05:59:02.766Z,83.05
2023-05-26T06:02:16.593Z,81.95
2023-05-26T06:05:29.399Z,80.70
2023-05-26T06:08:41.831Z,83.09
2023-05-26T06:11:54.638Z,80.27
2023-05-26T06:15:08.604Z,80.30
2023-05-26T06:18:21.403Z,81.49
2023-05-26T06:21:33.921Z,80.74
2023-05-26T06:24:47.478Z,80.12
2023-05-26T06:28:00.393Z,80.41
2023-05-26T06:31:13.191Z,77.86
2023-05-26T06:34:26.056Z,77.74
2023-05-26T06:37:39.285Z,79.32
2023-05-26T06:40:51.902Z,80.39
2023-05-26T06:44:04.729Z,78.51
2023-05-26T06:47:20.348Z,75.52
2023-05-26T06:50:33.307Z,76.52
2023-05-26T06:53:45.803Z,74.34
2023-05-26T06:56:58.671Z,75.03
2023-05-26T07:00:11.819Z,69.69
2023-05-26T07:03:26.678Z,68.02
2023-05-26T07:06:47.237Z,67.62
2023-05-26T07:10:01.150Z,68.33
2023-05-26T07:13:15.030Z,69.99
2023-05-26T07:16:28.236Z,68.48
2023-05-26T07:19:40.916Z,69.36
2023-05-26T07:22:53.623Z,69.99
2023-05-26T07:26:06.137Z,68.68
2023-05-26T07:29:18.877Z,69.16
2023-05-26T07:32:31.305Z,68.72
2023-05-26T07:35:44.300Z,67.55
2023-05-26T07:38:57.335Z,67.79
2023-05-26T07:42:10.382Z,67.41
2023-05-26T07:45:23.386Z,67.87
2023-05-26T07:48:36.270Z,67.30
2023-05-26T07:51:48.678Z,66.93
2023-05-26T07:55:01.796Z,66.79
2023-05-26T07:58:14.247Z,65.71
2023-05-26T08:01:26.976Z,66.15
2023-05-26T08:04:39.718Z,63.95
2023-05-26T08:07:52.122Z,67.13
2023-05-26T08:11:04.828Z,64.08
2023-05-26T08:14:17.298Z,62.60
2023-05-26T08:17:31.097Z,61.43
2023-05-26T08:20:43.677Z,62.55
2023-05-26T08:23:56.511Z,62.93
2023-05-26T08:27:09.567Z,60.78
2023-05-26T08:30:22.278Z,60.97
2023-05-26T08:33:34.692Z,60.07
2023-05-26T08:36:50.668Z,59.02
2023-05-26T08:40:05.470Z,58.67
2023-05-26T08:43:19.050Z,60.15
2023-05-26T08:46:34.477Z,59.88
2023-05-26T08:49:47.780Z,58.32
2023-05-26T08:56:33.969Z,59.44
2023-05-26T08:59:49.312Z,57.82
2023-05-26T09:03:04.273Z,57.35
2023-05-26T09:06:17.018Z,56.03
2023-05-26T09:09:30.415Z,54.96
2023-05-26T09:12:42.800Z,55.16
2023-05-26T09:16:02.782Z,57.28
2023-05-26T09:19:27.898Z,55.57
2023-05-26T09:22:41.070Z,55.38
2023-05-26T09:25:53.589Z,54.70
2023-05-26T09:29:07.084Z,55.27
2023-05-26T09:32:20.831Z,55.71
2023-05-26T09:35:41.095Z,55.32
2023-05-26T09:38:53.726Z,51.20
2023-05-26T09:42:07.958Z,50.47
2023-05-26T09:45:20.725Z,50.72
2023-05-26T09:48:37.461Z,50.26
2023-05-26T09:52:01.384Z,54.42
2023-05-26T09:55:22.976Z,54.31
2023-05-26T09:58:40.240Z,51.95
2023-05-26T10:01:53.339Z,51.05
2023-05-26T10:05:07.172Z,50.47
2023-05-26T10:08:20.485Z,47.99
2023-05-26T10:11:42.156Z,46.60
2023-05-26T10:14:55.077Z,46.43
2023-05-26T10:18:07.812Z,48.01
2023-05-26T10:21:30.435Z,47.95
2023-05-26T10:24:51.622Z,49.68
2023-05-26T10:28:28.448Z,48.16
2023-05-26T10:31:44.168Z,43.42
2023-05-26T10:34:56.655Z,45.19
2023-05-26T10:38:13.142Z,41.81
2023-05-26T10:41:32.295Z,44.41
2023-05-26T10:44:55.838Z,44.31
2023-05-26T10:48:09.286Z,41.54
2023-05-26T10:51:33.411Z,42.61
2023-05-26T10:54:48.779Z,44.14
2023-05-26T10:58:29.394Z,44.21
2023-05-26T11:01:43.261Z,43.55
2023-05-26T11:04:56.246Z,42.62
2023-05-26T11:08:21.855Z,44.19
2023-05-26T11:11:35.666Z,42.17
2023-05-26T11:14:48.123Z,42.13
2023-05-26T11:18:05.836Z,39.84
2023-05-26T11:21:18.958Z,40.40
2023-05-26T11:24:32.345Z,39.67
2023-05-26T11:27:48.396Z,40.28
2023-05-26T11:31:09.244Z,38.97
2023-05-26T11:34:22.708Z,40.34
2023-05-26T11:37:35.428Z,40.53
2023-05-26T11:40:47.854Z,39.37
2023-05-26T11:44:00.615Z,39.17
2023-05-26T11:47:16.004Z,39.07
2023-05-26T11:50:28.935Z,37.80
2023-05-26T11:53:42.938Z,36.79
2023-05-26T11:56:55.672Z,37.04
2023-05-26T12:00:13.229Z,37.62
2023-05-26T12:03:25.993Z,37.34
2023-05-26T12:06:45.826Z,36.58
2023-05-26T12:10:08.455Z,35.83
2023-05-26T12:13:28.236Z,35.95
2023-05-26T12:16:44.449Z,34.71
2023-05-26T12:19:57.002Z,34.97
2023-05-26T12:23:12.890Z,35.74
2023-05-26T12:26:30.616Z,36.21
2023-05-26T12:29:43.994Z,38.25
2023-05-26T12:32:56.598Z,39.22
2023-05-26T12:36:09.568Z,37.51
2023-05-26T12:39:22.084Z,37.23
2023-05-26T12:42:34.873Z,36.45
2023-05-26T12:45:47.273Z,34.41
2023-05-26T12:49:00.173Z,33.35
2023-05-26T12:52:12.852Z,32.53
2023-05-26T12:55:25.748Z,33.68
2023-05-26T12:58:44.508Z,33.14
2023-05-26T13:01:58.107Z,33.20
2023-05-26T13:05:10.643Z,31.16
2023-05-26T13:08:23.445Z,29.37
2023-05-26T13:11:35.813Z,29.25
2023-05-26T13:14:48.677Z,27.80
2023-05-26T13:18:01.488Z,28.82
2023-05-26T13:21:14.469Z,28.27
2023-05-26T13:24:26.885Z,29.07
2023-05-26T13:27:39.937Z,32.63
2023-05-26T13:30:52.495Z,32.94
2023-05-26T13:34:08.189Z,31.42
2023-05-26T13:37:20.676Z,31.25
2023-05-26T13:40:33.944Z,33.63
2023-05-26T13:43:46.838Z,33.33
2023-05-26T13:46:59.638Z,32.79
2023-05-26T13:50:20.634Z,33.51
2023-05-26T13:53:34.664Z,33.43
2023-05-26T13:56:47.143Z,32.58
2023-05-26T13:59:59.904Z,33.21
2023-05-26T14:03:12.725Z,36.10
2023-05-26T14:06:26.216Z,35.19
2023-05-26T14:09:38.725Z,34.19
2023-05-26T14:12:51.382Z,33.14
2023-05-26T14:16:04.010Z,32.38
2023-05-26T14:19:22.889Z,34.41
2023-05-26T14:22:38.641Z,34.55
2023-05-26T14:25:53.436Z,37.46
2023-05-26T14:29:05.968Z,38.87
2023-05-26T14:32:18.621Z,39.71
2023-05-26T14:35:31.414Z,39.39
2023-05-26T14:38:47.069Z,39.16
2023-05-26T14:41:59.500Z,38.85
2023-05-26T14:45:13.510Z,37.64
2023-05-26T14:48:26.316Z,39.50
2023-05-26T14:51:39.073Z,39.16
2023-05-26T14:54:51.585Z,38.50
2023-05-26T14:58:11.336Z,39.52
2023-05-26T15:01:23.943Z,38.70
2023-05-26T15:04:37.060Z,38.96
2023-05-26T15:07:52.136Z,38.81
2023-05-26T15:11:05.343Z,38.50
2023-05-26T15:14:17.708Z,37.63
2023-05-26T15:17:30.473Z,36.90
2023-05-26T15:21:22.935Z,36.92
2023-05-26T15:24:16.573Z,36.67
2023-05-26T15:27:29.184Z,38.30
2023-05-26T15:30:41.891Z,38.42
2023-05-26T15:33:54.269Z,37.79
2023-05-26T15:37:06.960Z,37.87
2023-05-26T15:40:19.428Z,37.90
2023-05-26T15:43:32.084Z,37.83
2023-05-26T15:46:44.626Z,38.46
2023-05-26T15:49:57.368Z,38.89
2023-05-26T15:53:09.723Z,39.20
2023-05-26T15:56:23.196Z,40.13
2023-05-26T15:59:35.759Z,41.38
2023-05-26T16:02:48.456Z,41.18
2023-05-26T16:06:03.364Z,44.03
2023-05-26T16:09:17.872Z,45.56
2023-05-26T16:12:30.573Z,46.32
2023-05-26T16:15:42.999Z,46.11
2023-05-26T16:18:55.829Z,48.05
2023-05-26T16:22:08.209Z,48.29
2023-05-26T16:25:20.896Z,45.38
2023-05-26T16:28:33.245Z,44.18
2023-05-26T16:31:47.148Z,43.12
2023-05-26T16:34:59.997Z,40.46
2023-05-26T16:38:15.624Z,39.79
2023-05-26T16:41:28.339Z,41.41
2023-05-26T16:44:40.982Z,42.53
2023-05-26T16:47:53.476Z,43.96
2023-05-26T16:51:06.194Z,45.33
2023-05-26T16:54:18.594Z,46.88
2023-05-26T16:57:31.250Z,48.56
2023-05-26T17:00:43.725Z,48.64
2023-05-26T17:03:56.388Z,49.50
2023-05-26T17:07:08.763Z,50.77
2023-05-26T17:10:21.508Z,51.65
2023-05-26T17:13:34.206Z,51.69
2023-05-26T17:16:46.963Z,50.78
2023-05-26T17:19:59.775Z,51.05
2023-05-26T17:23:12.857Z,50.83
2023-05-26T17:26:25.772Z,51.66
2023-05-26T17:29:38.427Z,51.01
2023-05-26T17:32:51.198Z,51.01
2023-05-26T17:36:04.177Z,50.53
2023-05-26T17:39:16.903Z,50.96
2023-05-26T17:42:29.568Z,51.44
2023-05-26T17:45:41.955Z,51.36
2023-05-26T17:48:54.665Z,52.55
2023-05-26T17:52:07.039Z,53.45
2023-05-26T17:55:20.415Z,54.26
2023-05-26T17:58:32.857Z,55.55
2023-05-26T18:01:48.245Z,56.89
2023-05-26T18:05:01.840Z,57.53
2023-05-26T18:08:14.330Z,58.53
2023-05-26T18:11:27.315Z,59.26
2023-05-26T18:14:39.676Z,60.62
2023-05-26T18:17:52.389Z,61.92
2023-05-26T18:21:05.168Z,63.01
2023-05-26T18:24:18.052Z,63.78
2023-05-26T18:27:31.307Z,64.79
2023-05-26T18:30:44.006Z,66.67
2023-05-26T18:33:56.448Z,67.89
2023-05-26T18:37:09.271Z,68.05
2023-05-26T18:40:21.698Z,68.49
2023-05-26T18:43:34.643Z,70.28
2023-05-26T18:46:47.020Z,70.82
2023-05-26T18:49:59.741Z,71.07
2023-05-26T18:53:12.193Z,72.56
2023-05-26T18:56:24.891Z,74.09
2023-05-26T18:59:37.328Z,75.67
2023-05-26T19:02:50.279Z,77.44
2023-05-26T19:06:02.749Z,78.26
2023-05-26T19:09:15.438Z,78.52
2023-05-26T19:12:27.826Z,76.99
2023-05-26T19:15:41.967Z,76.97
2023-05-26T19:18:55.014Z,79.16
2023-05-26T19:22:07.947Z,79.32
2023-05-26T19:25:20.405Z,80.27
2023-05-26T19:28:35.288Z,80.95
2023-05-26T19:31:47.909Z,81.03
2023-05-26T19:35:00.675Z,81.87
2023-05-26T19:38:13.068Z,82.55
2023-05-26T19:41:27.355Z,82.25
2023-05-26T19:44:40.340Z,83.32
2023-05-26T19:47:53.105Z,83.76
2023-05-26T19:51:11.329Z,83.72
2023-05-26T19:54:24.060Z,83.96
2023-05-26T19:57:37.079Z,85.88
2023-05-26T20:00:49.952Z,87.02
2023-05-26T20:04:02.760Z,86.20
2023-05-26T20:07:15.188Z,86.64
2023-05-26T20:10:27.886Z,84.82
2023-05-26T20:13:40.317Z,85.98
2023-05-26T20:16:53.473Z,86.52
2023-05-26T20:20:13.866Z,86.78
2023-05-26T20:23:26.995Z,86.77
2023-05-26T20:26:39.497Z,89.27
2023-05-26T20:29:52.237Z,90.13
2023-05-26T20:33:04.763Z,88.56
2023-05-26T20:36:19.709Z,91.08
2023-05-26T20:39:32.215Z,91.64
2023-05-26T20:42:44.987Z,91.83
2023-05-26T20:45:57.400Z,92.27
2023-05-26T20:49:10.069Z,91.82
2023-05-26T20:52:22.499Z,90.96
2023-05-26T20:55:35.980Z,92.37
2023-05-26T20:58:48.877Z,93.45
2023-05-26T21:02:01.691Z,92.14
2023-05-26T21:05:14.133Z,92.37
2023-05-26T21:08:27.161Z,93.64
2023-05-26T21:11:39.933Z,90.46
2023-05-26T21:14:52.621Z,89.96
2023-05-26T21:18:05.256Z,89.34
2023-05-26T21:21:18.120Z,86.35
2023-05-26T21:24:30.696Z,85.54
2023-05-26T21:27:43.427Z,84.69
2023-05-26T21:30:55.872Z,82.03
2023-05-26T21:34:08.579Z,82.44
2023-05-26T21:37:20.981Z,83.36
2023-05-26T21:40:33.644Z,83.41
2023-05-26T21:43:46.041Z,83.80
2023-05-26T21:46:58.838Z,82.71
2023-05-26T21:50:11.439Z,81.60
2023-05-26T21:53:25.030Z,81.31
2023-05-26T21:56:37.490Z,80.45
2023-05-26T21:59:50.218Z,80.01
2023-05-26T22:03:02.696Z,80.71
2023-05-26T22:06:15.586Z,81.07
2023-05-26T22:09:28.083Z,81.52
2023-05-26T22:12:41.941Z,82.19
2023-05-26T22:15:54.655Z,81.62
2023-05-26T22:19:07.429Z,81.86
2023-05-26T22:22:19.864Z,82.41
2023-05-26T22:25:32.519Z,84.92
2023-05-26T22:28:44.872Z,85.36
2023-05-26T22:31:57.554Z,83.55
2023-05-26T22:35:09.928Z,83.60
2023-05-26T22:38:22.660Z,82.58
2023-05-26T22:41:35.138Z,82.14
2023-05-26T22:44:47.832Z,80.92
2023-05-26T22:48:00.296Z,80.85
2023-05-26T22:51:13.017Z,79.30
2023-05-26T22:54:25.815Z,76.88
2023-05-26T22:57:38.577Z,77.46
2023-05-26T23:00:51.016Z,76.67
2023-05-26T23:04:03.944Z,76.72
2023-05-26T23:07:16.385Z,77.47
2023-05-26T23:10:29.086Z,78.12
2023-05-26T23:13:41.524Z,78.28
2023-05-26T23:16:55.719Z,78.96
2023-05-26T23:20:08.613Z,79.43
2023-05-26T23:23:24.377Z,80.47
2023-05-26T23:26:36.830Z,82.23
2023-05-26T23:29:49.704Z,84.22
2023-05-26T23:33:02.160Z,84.78
2023-05-26T23:36:14.844Z,84.11
2023-05-26T23:39:27.469Z,84.64
2023-05-26T23:42:40.157Z,84.90
2023-05-26T23:45:52.641Z,85.90
2023-05-26T23:49:06.195Z,87.26
2023-05-26T23:52:18.624Z,88.22
2023-05-26T23:55:31.291Z,87.30
2023-05-26T23:58:43.792Z,85.57
